Time;durP1;ratioP1;P1;durP2;ratioP2;P2;SDS_P1;SDS_P2;PMS_P1;PMS_P2;Temp;Humidity;BMP_temperature;BMP_pressure;BME280_temperature;BME280_humidity;BME280_pressure;Samples;Min_cycle;Max_cycle;Signal;HPM_P1;HPM_P2
2024/03/26 00:01:06;;;;;;;0.30;0.20;;;;;;;7.11;69.39;98510.53;5028770;28;20480;-49
2024/03/26 00:03:32;;;;;;;0.30;0.20;;;;;;;7.16;69.57;98505.94;5034990;28;20470;-48
2024/03/26 00:05:57;;;;;;;0.30;0.20;;;;;;;7.18;69.64;98496.16;5036267;28;20974;-50
2024/03/26 00:08:23;;;;;;;0.30;0.20;;;;;;;7.10;70.33;98501.75;5036331;28;20463;-49
2024/03/26 00:10:49;;;;;;;0.40;0.27;;;;;;;6.88;72.25;98495.69;5036327;28;20580;-49
2024/03/26 00:13:14;;;;;;;0.30;0.20;;;;;;;7.10;71.78;98490.34;5036327;28;20216;-49
2024/03/26 00:15:40;;;;;;;0.30;0.20;;;;;;;6.90;71.46;98488.56;5029330;28;20220;-49
2024/03/26 00:18:05;;;;;;;0.30;0.20;;;;;;;6.67;72.77;98478.13;5033213;28;20601;-49
2024/03/26 00:20:31;;;;;;;0.30;0.20;;;;;;;6.67;72.88;98491.31;5035802;28;20222;-49
2024/03/26 00:22:56;;;;;;;0.30;0.20;;;;;;;6.63;72.79;98495.88;5032186;28;20688;-49
2024/03/26 00:25:22;;;;;;;0.30;0.20;;;;;;;6.34;74.59;98499.69;5036496;28;20220;-49
2024/03/26 00:27:47;;;;;;;0.30;0.20;;;;;;;6.36;74.09;98495.22;5034472;28;20236;-48
2024/03/26 00:30:13;;;;;;;0.30;0.20;;;;;;;6.38;73.96;98498.66;5019035;28;20258;-49
2024/03/26 00:32:38;;;;;;;0.30;0.20;;;;;;;6.20;75.03;98494.13;5035954;28;20270;-49
2024/03/26 00:35:04;;;;;;;0.30;0.20;;;;;;;6.05;75.85;98495.59;5036974;28;20632;-49
2024/03/26 00:37:29;;;;;;;0.30;0.20;;;;;;;6.15;75.88;98491.66;5037061;28;20208;-49
2024/03/26 00:39:55;;;;;;;0.30;0.10;;;;;;;6.08;76.76;98487.56;5036872;28;20217;-49
2024/03/26 00:42:20;;;;;;;0.30;0.20;;;;;;;5.97;78.27;98483.63;5037121;28;20322;-48
2024/03/26 00:44:46;;;;;;;0.30;0.10;;;;;;;5.94;78.72;98484.59;5016940;28;20693;-48
2024/03/26 00:47:11;;;;;;;0.30;0.20;;;;;;;6.02;77.68;98485.13;5024812;28;20259;-48
2024/03/26 00:49:37;;;;;;;0.30;0.13;;;;;;;6.09;77.72;98481.34;5036784;28;20221;-49
2024/03/26 00:52:02;;;;;;;0.30;0.20;;;;;;;6.01;78.57;98478.16;5018960;28;20271;-49
2024/03/26 00:54:28;;;;;;;0.30;0.10;;;;;;;5.98;78.94;98480.06;5035641;28;20247;-49
2024/03/26 00:56:53;;;;;;;0.30;0.17;;;;;;;6.16;77.71;98469.63;5020618;28;20270;-49
2024/03/26 00:59:19;;;;;;;0.30;0.10;;;;;;;6.14;77.86;98463.56;5026755;28;20575;-49
2024/03/26 01:01:44;;;;;;;0.30;0.20;;;;;;;6.04;79.23;98471.91;5020800;28;20235;-48
2024/03/26 01:04:10;;;;;;;0.30;0.20;;;;;;;6.18;78.51;98475.72;5037027;28;20224;-49
2024/03/26 01:06:35;;;;;;;0.30;0.20;;;;;;;6.08;79.03;98465.59;5036344;28;20293;-48
2024/03/26 01:09:01;;;;;;;0.30;0.20;;;;;;;6.07;79.14;98463.88;5037060;28;20248;-48
2024/03/26 01:11:26;;;;;;;0.30;0.20;;;;;;;5.93;79.88;98465.28;5037054;28;20240;-48
2024/03/26 01:13:52;;;;;;;0.30;0.20;;;;;;;6.06;80.38;98468.28;5027571;28;20216;-48
2024/03/26 01:16:18;;;;;;;0.30;0.17;;;;;;;5.96;79.84;98461.66;5032338;28;20670;-49
2024/03/26 01:18:44;;;;;;;0.30;0.20;;;;;;;5.91;81.01;98455.72;5025899;28;20470;-49
2024/03/26 01:21:09;;;;;;;0.30;0.20;;;;;;;5.98;80.56;98453.69;5035217;28;20246;-48
2024/03/26 01:23:35;;;;;;;0.30;0.10;;;;;;;5.90;81.02;98440.81;5035726;28;20220;-48
2024/03/26 01:26:00;;;;;;;0.30;0.17;;;;;;;5.99;80.18;98437.81;5035800;28;20216;-49
2024/03/26 01:28:25;;;;;;;0.30;0.20;;;;;;;5.97;79.66;98434.38;5027727;28;20292;-48
2024/03/26 01:30:51;;;;;;;0.30;0.10;;;;;;;6.03;81.34;98433.25;5035000;28;20347;-48
2024/03/26 01:33:16;;;;;;;0.30;0.10;;;;;;;6.10;79.59;98426.81;5035368;28;20227;-49
2024/03/26 01:35:53;;;;;;;0.30;0.20;;;;;;;6.14;79.55;98429.25;5035145;28;20259;-49
2024/03/26 01:38:18;;;;;;;0.30;0.10;;;;;;;6.06;78.93;98431.38;5031142;28;20205;-48
2024/03/26 01:40:44;;;;;;;0.30;0.20;;;;;;;5.98;79.47;98428.16;5019743;28;20482;-48
2024/03/26 01:43:09;;;;;;;0.30;0.20;;;;;;;6.08;80.12;98421.63;5035335;28;20693;-48
2024/03/26 01:45:35;;;;;;;0.30;0.20;;;;;;;5.99;79.88;98421.13;5035343;28;20215;-48
2024/03/26 01:48:01;;;;;;;0.30;0.20;;;;;;;6.19;79.64;98423.81;5028413;28;20244;-49
2024/03/26 01:50:27;;;;;;;0.30;0.20;;;;;;;6.22;79.17;98413.13;5026427;28;20629;-49
2024/03/26 01:52:53;;;;;;;0.30;0.10;;;;;;;6.15;79.62;98409.88;5022302;28;20212;-49
2024/03/26 01:55:18;;;;;;;0.30;0.20;;;;;;;6.11;79.94;98408.28;5023742;28;20216;-48
2024/03/26 01:57:45;;;;;;;0.30;0.20;;;;;;;5.90;80.37;98404.78;5026104;28;20899;-48
2024/03/26 02:00:14;;;;;;;0.30;0.13;;;;;;;5.97;80.70;98405.38;5011744;28;20593;-49
2024/03/26 02:02:40;;;;;;;0.30;0.20;;;;;;;6.16;79.71;98401.03;5035894;28;20478;-49
2024/03/26 02:05:06;;;;;;;0.30;0.20;;;;;;;5.94;81.38;98402.84;5036324;28;20495;-49
2024/03/26 02:07:32;;;;;;;0.30;0.20;;;;;;;5.82;81.73;98401.53;5034085;28;20236;-49
2024/03/26 02:09:57;;;;;;;0.30;0.20;;;;;;;6.05;79.88;98398.00;5035780;28;20828;-49
2024/03/26 02:12:23;;;;;;;0.30;0.20;;;;;;;5.83;81.34;98402.38;5036075;28;20498;-49
2024/03/26 02:14:48;;;;;;;0.30;0.10;;;;;;;5.96;81.00;98390.47;5015223;28;20750;-49
2024/03/26 02:17:14;;;;;;;0.30;0.10;;;;;;;6.00;80.30;98402.59;4999541;28;20205;-49
2024/03/26 02:19:39;;;;;;;0.30;0.20;;;;;;;5.87;81.00;98402.19;5035543;28;20294;-49
2024/03/26 02:22:05;;;;;;;0.30;0.20;;;;;;;6.01;81.53;98406.09;5017209;28;20237;-49
2024/03/26 02:24:31;;;;;;;0.30;0.10;;;;;;;5.96;81.12;98402.78;5035204;28;20228;-50
2024/03/26 02:26:58;;;;;;;0.30;0.17;;;;;;;5.92;81.40;98394.16;5039884;28;20262;-49
2024/03/26 02:29:24;;;;;;;0.30;0.20;;;;;;;5.78;81.64;98386.75;5014607;28;20536;-48
2024/03/26 02:31:49;;;;;;;0.30;0.20;;;;;;;5.85;82.62;98384.72;5040994;28;20822;-49
2024/03/26 02:34:15;;;;;;;0.30;0.20;;;;;;;5.69;81.88;98383.63;5039916;28;20250;-49
2024/03/26 02:36:40;;;;;;;0.30;0.13;;;;;;;5.73;82.85;98378.16;5027549;28;20378;-48
2024/03/26 02:39:06;;;;;;;0.30;0.20;;;;;;;5.77;82.19;98385.06;5037625;28;20283;-48
2024/03/26 02:41:32;;;;;;;0.30;0.20;;;;;;;5.63;83.47;98372.41;5041499;28;20236;-49
2024/03/26 02:43:58;;;;;;;0.30;0.20;;;;;;;5.68;82.70;98374.88;5040030;28;20219;-48
2024/03/26 02:46:23;;;;;;;0.30;0.20;;;;;;;5.64;83.03;98371.50;5035927;28;20263;-49
2024/03/26 02:48:48;;;;;;;0.30;0.20;;;;;;;5.74;83.24;98368.47;5036826;28;20266;-49
2024/03/26 02:51:14;;;;;;;0.30;0.10;;;;;;;5.55;83.32;98363.09;5024871;28;20308;-48
2024/03/26 02:53:39;;;;;;;0.30;0.10;;;;;;;5.34;83.56;98363.03;5011564;28;20216;-49
2024/03/26 02:56:05;;;;;;;0.30;0.20;;;;;;;5.41;84.21;98355.72;5013565;28;20260;-49
2024/03/26 02:58:31;;;;;;;0.30;0.10;;;;;;;5.29;84.03;98359.69;5036438;28;20327;-48
2024/03/26 03:01:10;;;;;;;0.30;0.10;;;;;;;5.43;84.28;98366.19;5039129;28;20236;-49
2024/03/26 03:03:38;;;;;;;0.30;0.20;;;;;;;5.24;85.24;98352.91;5039542;28;20216;-49
2024/03/26 03:06:10;;;;;;;0.30;0.10;;;;;;;5.20;85.42;98354.75;5039427;28;20466;-48
2024/03/26 03:08:37;;;;;;;0.30;0.10;;;;;;;5.29;85.78;98348.28;5028394;28;20493;-48
2024/03/26 03:11:03;;;;;;;0.30;0.10;;;;;;;5.23;84.91;98349.41;5039369;28;20540;-48
2024/03/26 03:13:29;;;;;;;0.30;0.10;;;;;;;5.11;85.46;98347.22;5039432;28;20455;-48
2024/03/26 03:15:55;;;;;;;0.30;0.10;;;;;;;5.27;85.81;98347.50;5039093;28;20545;-49
2024/03/26 03:18:20;;;;;;;0.30;0.10;;;;;;;5.44;85.20;98339.78;5026119;28;20485;-49
2024/03/26 03:20:46;;;;;;;0.30;0.10;;;;;;;5.13;85.63;98337.50;5033951;28;20235;-48
2024/03/26 03:23:12;;;;;;;0.30;0.17;;;;;;;5.18;85.15;98337.31;5027806;28;20208;-48
2024/03/26 03:25:38;;;;;;;0.30;0.17;;;;;;;5.13;85.33;98337.50;5049286;28;20216;-49
2024/03/26 03:28:04;;;;;;;0.30;0.10;;;;;;;4.99;86.37;98340.66;5038665;28;20871;-48
2024/03/26 03:30:30;;;;;;;0.30;0.20;;;;;;;4.91;85.42;98334.81;5037473;28;20221;-48
2024/03/26 03:32:55;;;;;;;0.30;0.10;;;;;;;4.95;85.99;98335.56;5038545;28;20459;-49
2024/03/26 03:35:21;;;;;;;0.30;0.10;;;;;;;4.67;86.58;98336.59;5028640;28;20209;-49
2024/03/26 03:37:46;;;;;;;0.30;0.20;;;;;;;4.83;86.17;98334.25;5038493;28;20209;-48
2024/03/26 03:40:13;;;;;;;0.30;0.10;;;;;;;4.84;86.56;98329.84;5015441;28;20263;-48
2024/03/26 03:42:38;;;;;;;0.30;0.20;;;;;;;4.65;86.43;98314.72;5007352;28;20848;-49
2024/03/26 03:45:05;;;;;;;0.30;0.10;;;;;;;4.64;86.88;98330.56;5037629;28;20303;-49
2024/03/26 03:47:30;;;;;;;0.30;0.20;;;;;;;4.59;86.57;98316.72;5031352;28;20767;-48
2024/03/26 03:49:56;;;;;;;0.30;0.10;;;;;;;4.71;86.54;98316.28;5035662;28;20472;-48
2024/03/26 03:52:22;;;;;;;0.30;0.20;;;;;;;4.67;87.51;98312.06;5019206;28;20255;-48
2024/03/26 03:54:48;;;;;;;0.30;0.10;;;;;;;4.58;87.75;98289.56;5034216;28;20555;-48
2024/03/26 03:57:13;;;;;;;0.30;0.10;;;;;;;4.54;87.64;98284.47;5024755;28;20563;-48
2024/03/26 03:59:39;;;;;;;0.30;0.20;;;;;;;4.62;87.53;98272.72;5037498;28;20516;-49
2024/03/26 04:02:04;;;;;;;0.30;0.10;;;;;;;4.58;88.04;98300.06;5012304;28;20239;-49
2024/03/26 04:04:30;;;;;;;0.30;0.10;;;;;;;4.69;88.42;98323.38;5029396;28;20209;-48
2024/03/26 04:06:55;;;;;;;0.30;0.20;;;;;;;4.69;88.37;98328.63;5038097;28;20236;-48
2024/03/26 04:09:21;;;;;;;0.30;0.10;;;;;;;4.67;88.86;98325.22;5037987;28;20239;-48
2024/03/26 04:11:46;;;;;;;0.30;0.10;;;;;;;4.88;87.83;98311.22;5034509;28;20899;-48
2024/03/26 04:14:12;;;;;;;0.30;0.20;;;;;;;5.26;86.75;98306.28;5007660;28;20259;-48
2024/03/26 04:16:37;;;;;;;0.30;0.20;;;;;;;4.98;86.91;98302.09;5032319;28;20223;-49
2024/03/26 04:19:03;;;;;;;0.30;0.10;;;;;;;4.94;88.00;98297.00;5030697;28;20220;-48
2024/03/26 04:21:28;;;;;;;0.30;0.20;;;;;;;4.97;87.77;98292.47;5036934;28;20298;-48
2024/03/26 04:23:54;;;;;;;0.30;0.20;;;;;;;4.91;86.74;98297.09;5024958;28;20220;-49
2024/03/26 04:26:20;;;;;;;0.30;0.20;;;;;;;4.89;86.99;98285.78;5036815;28;20223;-49
2024/03/26 04:28:45;;;;;;;0.30;0.20;;;;;;;4.90;87.74;98284.84;5037766;28;20451;-48
2024/03/26 04:31:11;;;;;;;0.30;0.10;;;;;;;4.67;88.17;98285.75;5010857;28;20262;-48
2024/03/26 04:33:36;;;;;;;0.30;0.10;;;;;;;4.75;88.88;98289.78;5037357;28;20212;-48
2024/03/26 04:36:02;;;;;;;0.30;0.20;;;;;;;4.69;88.95;98291.78;5017719;28;20217;-49
2024/03/26 04:38:28;;;;;;;0.30;0.20;;;;;;;4.59;89.58;98298.31;5026123;28;20224;-48
2024/03/26 04:40:54;;;;;;;0.30;0.10;;;;;;;4.68;89.48;98300.59;5036565;28;20244;-49
2024/03/26 04:43:20;;;;;;;0.30;0.10;;;;;;;4.81;89.00;98307.13;5035422;28;20600;-49
2024/03/26 04:45:45;;;;;;;0.30;0.20;;;;;;;4.65;89.08;98311.22;5039926;28;20222;-49
2024/03/26 04:48:11;;;;;;;0.30;0.10;;;;;;;4.74;88.81;98321.41;5033451;28;20243;-49
2024/03/26 04:50:37;;;;;;;0.30;0.20;;;;;;;4.84;89.12;98308.78;5030294;28;20459;-50
2024/03/26 04:53:02;;;;;;;0.30;0.20;;;;;;;4.76;88.23;98307.28;5033435;28;20594;-49
2024/03/26 04:55:28;;;;;;;0.30;0.20;;;;;;;4.89;88.99;98302.41;5028831;28;20559;-49
2024/03/26 04:57:53;;;;;;;0.30;0.10;;;;;;;4.91;88.02;98300.59;5029737;28;20306;-49
2024/03/26 05:00:19;;;;;;;0.30;0.20;;;;;;;4.94;87.90;98304.91;5037421;28;20220;-49
2024/03/26 05:02:44;;;;;;;0.30;0.10;;;;;;;4.89;88.60;98301.56;5037074;28;20290;-48
2024/03/26 05:05:10;;;;;;;0.30;0.10;;;;;;;4.80;88.52;98297.53;5037073;28;20217;-48
2024/03/26 05:07:37;;;;;;;0.30;0.20;;;;;;;4.67;88.67;98302.38;5036638;28;20231;-48
2024/03/26 05:10:03;;;;;;;0.30;0.10;;;;;;;4.70;89.15;98302.25;5036981;28;20871;-48
2024/03/26 05:12:29;;;;;;;0.30;0.20;;;;;;;4.65;90.46;98304.19;5036869;28;20542;-49
2024/03/26 05:14:55;;;;;;;0.30;0.20;;;;;;;4.58;90.46;98307.97;5037526;28;20466;-48
2024/03/26 05:17:21;;;;;;;0.30;0.10;;;;;;;4.62;90.14;98303.44;5025044;28;20230;-48
2024/03/26 05:19:47;;;;;;;0.30;0.10;;;;;;;4.69;90.69;98307.59;5035755;28;20678;-49
2024/03/26 05:22:12;;;;;;;0.30;0.10;;;;;;;4.58;90.47;98307.13;5036521;28;20479;-48
2024/03/26 05:24:39;;;;;;;0.30;0.10;;;;;;;4.68;91.15;98306.72;5036428;28;20692;-49
2024/03/26 05:27:05;;;;;;;0.30;0.10;;;;;;;4.63;90.28;98310.41;5035896;28;20712;-49
2024/03/26 05:29:31;;;;;;;0.30;0.10;;;;;;;4.69;91.41;98297.91;5035978;28;20463;-48
2024/03/26 05:31:57;;;;;;;0.27;0.10;;;;;;;4.50;92.11;98302.13;5036345;28;21145;-48
2024/03/26 05:34:23;;;;;;;0.30;0.10;;;;;;;4.80;92.38;98310.69;5023783;28;20210;-48
2024/03/26 05:36:48;;;;;;;0.20;0.10;;;;;;;5.14;91.75;98304.97;5022600;28;20455;-48
2024/03/26 05:39:15;;;;;;;0.30;0.10;;;;;;;5.01;90.41;98296.69;5036180;28;20222;-48
2024/03/26 05:41:41;;;;;;;0.20;0.10;;;;;;;5.17;90.18;98298.72;5036199;28;20313;-48
2024/03/26 05:44:06;;;;;;;0.27;0.10;;;;;;;5.14;89.57;98304.97;5036208;28;20960;-48
2024/03/26 05:46:33;;;;;;;0.30;0.10;;;;;;;5.59;88.59;98290.88;5030929;28;20456;-48
2024/03/26 05:48:58;;;;;;;0.30;0.10;;;;;;;5.56;87.28;98280.47;5035460;28;20212;-48
2024/03/26 05:51:24;;;;;;;0.30;0.13;;;;;;;5.48;87.95;98285.19;5020677;28;20529;-48
2024/03/26 05:53:49;;;;;;;0.30;0.10;;;;;;;5.70;88.07;98295.72;5034525;28;20284;-48
2024/03/26 05:56:15;;;;;;;0.30;0.10;;;;;;;5.65;87.58;98293.28;5020254;28;20714;-48
2024/03/26 05:58:40;;;;;;;0.30;0.10;;;;;;;5.54;88.29;98290.22;5034941;28;20216;-48
2024/03/26 06:01:06;;;;;;;0.30;0.10;;;;;;;5.56;88.12;98288.38;5037850;28;20232;-48
2024/03/26 06:03:32;;;;;;;0.30;0.10;;;;;;;5.61;87.98;98281.13;5045159;28;20227;-50
2024/03/26 06:05:58;;;;;;;0.30;0.10;;;;;;;5.65;88.37;98288.88;5046145;28;20454;-48
2024/03/26 06:08:24;;;;;;;0.30;0.20;;;;;;;5.62;88.27;98275.84;5045348;28;20250;-49
2024/03/26 06:10:50;;;;;;;0.30;0.10;;;;;;;5.66;87.66;98273.91;5045949;28;20475;-48
2024/03/26 06:13:15;;;;;;;0.30;0.10;;;;;;;5.87;88.11;98264.25;5045026;28;20234;-48
2024/03/26 06:15:41;;;;;;;0.30;0.10;;;;;;;6.01;87.58;98268.97;5041653;28;20307;-48
2024/03/26 06:18:06;;;;;;;0.30;0.10;;;;;;;6.01;87.08;98268.97;5040299;28;20291;-49
2024/03/26 06:20:32;;;;;;;0.30;0.20;;;;;;;6.07;87.10;98255.53;5045526;28;20252;-49
2024/03/26 06:22:58;;;;;;;0.30;0.10;;;;;;;6.15;87.10;98261.31;5037624;28;20281;-49
2024/03/26 06:25:23;;;;;;;0.30;0.10;;;;;;;6.16;87.79;98255.09;5035851;28;20470;-49
2024/03/26 06:27:49;;;;;;;0.30;0.20;;;;;;;6.35;87.00;98247.25;5035666;28;20313;-48
2024/03/26 06:30:14;;;;;;;0.30;0.10;;;;;;;6.60;86.03;98226.75;5035909;28;20592;-49
2024/03/26 06:32:40;;;;;;;0.30;0.17;;;;;;;6.40;86.66;98251.41;5034752;28;20319;-49
2024/03/26 06:35:06;;;;;;;0.30;0.20;;;;;;;6.36;87.68;98272.72;5035401;28;20220;-48
2024/03/26 06:37:32;;;;;;;0.30;0.20;;;;;;;6.35;88.18;98271.00;5035722;28;20213;-48
2024/03/26 06:39:58;;;;;;;0.30;0.10;;;;;;;6.47;87.52;98281.88;5035174;28;20212;-49
2024/03/26 06:42:23;;;;;;;0.30;0.20;;;;;;;6.56;86.69;98267.41;5034699;28;20995;-48
2024/03/26 06:44:49;;;;;;;0.30;0.10;;;;;;;6.70;85.80;98258.84;5034769;28;20677;-48
2024/03/26 06:47:14;;;;;;;0.30;0.20;;;;;;;6.71;85.58;98274.63;5011926;28;20244;-49
2024/03/26 06:49:40;;;;;;;0.30;0.10;;;;;;;6.86;85.38;98265.16;5034415;28;20213;-48
2024/03/26 06:52:06;;;;;;;0.30;0.10;;;;;;;7.02;85.19;98265.31;5017352;28;20700;-49
2024/03/26 06:54:33;;;;;;;0.30;0.20;;;;;;;7.43;82.75;98263.34;5032593;28;20493;-49
2024/03/26 06:56:58;;;;;;;0.30;0.20;;;;;;;7.21;83.33;98252.94;5018474;28;20966;-50
2024/03/26 06:59:24;;;;;;;0.30;0.10;;;;;;;7.29;82.26;98257.88;5033913;28;20546;-49
2024/03/26 07:01:50;;;;;;;0.30;0.20;;;;;;;7.15;82.90;98258.53;5033616;28;20604;-49
2024/03/26 07:04:16;;;;;;;0.30;0.20;;;;;;;7.30;82.86;98252.50;5034142;28;20224;-50
2024/03/26 07:06:42;;;;;;;0.30;0.20;;;;;;;7.28;81.83;98250.88;5035761;28;20499;-50
2024/03/26 07:09:08;;;;;;;0.30;0.20;;;;;;;7.46;81.50;98249.09;5037337;28;20591;-49
2024/03/26 07:11:34;;;;;;;0.30;0.20;;;;;;;7.39;83.10;98248.53;5037328;28;20525;-49
2024/03/26 07:13:59;;;;;;;0.30;0.20;;;;;;;7.62;83.23;98242.13;5037536;28;20299;-49
2024/03/26 07:16:25;;;;;;;0.30;0.20;;;;;;;7.57;83.90;98242.38;5033201;28;20217;-50
2024/03/26 07:18:51;;;;;;;0.30;0.10;;;;;;;7.62;83.37;98232.41;5028332;28;20720;-50
2024/03/26 07:21:17;;;;;;;0.30;0.20;;;;;;;7.58;83.61;98220.28;5037074;28;20232;-50
2024/03/26 07:23:43;;;;;;;0.30;0.20;;;;;;;7.71;82.57;98218.75;5037262;28;20465;-50
2024/03/26 07:26:09;;;;;;;0.30;0.20;;;;;;;8.22;80.97;98206.41;5037129;28;20541;-50
2024/03/26 07:28:35;;;;;;;0.30;0.10;;;;;;;8.14;80.30;98207.75;5037091;28;20530;-49
2024/03/26 07:31:00;;;;;;;0.30;0.20;;;;;;;7.76;81.86;98226.44;5036817;28;20548;-50
2024/03/26 07:33:27;;;;;;;0.30;0.10;;;;;;;7.51;84.88;98245.28;5026846;28;20258;-49
2024/03/26 07:35:53;;;;;;;0.30;0.20;;;;;;;7.61;83.68;98228.06;5036726;28;20220;-49
2024/03/26 07:38:18;;;;;;;0.30;0.20;;;;;;;7.55;82.23;98244.25;5037825;28;20920;-49
2024/03/26 07:40:44;;;;;;;0.30;0.10;;;;;;;7.81;81.63;98236.75;5037024;28;20250;-49
2024/03/26 07:43:09;;;;;;;0.30;0.20;;;;;;;7.82;81.12;98236.72;5037189;28;20216;-49
2024/03/26 07:45:37;;;;;;;0.30;0.20;;;;;;;7.82;81.39;98230.56;5037147;28;20213;-49
2024/03/26 07:48:03;;;;;;;0.30;0.20;;;;;;;7.87;80.86;98216.16;5030870;28;20255;-49
2024/03/26 07:50:28;;;;;;;0.30;0.10;;;;;;;7.75;80.90;98210.66;5034772;28;20951;-49
2024/03/26 07:52:54;;;;;;;0.30;0.20;;;;;;;7.73;80.00;98203.66;5038241;28;20462;-49
2024/03/26 07:55:19;;;;;;;0.30;0.20;;;;;;;7.80;79.14;98201.53;5029465;28;20292;-49
2024/03/26 07:57:45;;;;;;;0.30;0.20;;;;;;;7.96;79.33;98194.53;5028193;28;20212;-51
2024/03/26 08:00:11;;;;;;;0.30;0.20;;;;;;;7.91;79.42;98187.75;5036546;28;20222;-51
2024/03/26 08:02:41;;;;;;;0.30;0.20;;;;;;;8.01;78.41;98196.94;5036603;28;20237;-50
2024/03/26 08:05:07;;;;;;;0.30;0.20;;;;;;;8.37;79.42;98190.69;5036409;28;20458;-49
2024/03/26 08:07:32;;;;;;;0.30;0.10;;;;;;;8.01;76.14;98184.56;5036457;28;20541;-48
2024/03/26 08:09:59;;;;;;;0.30;0.20;;;;;;;7.96;75.15;98173.38;5037175;28;20467;-48
2024/03/26 08:12:25;;;;;;;0.30;0.20;;;;;;;7.98;76.02;98186.53;5037735;28;20247;-48
2024/03/26 08:14:50;;;;;;;0.30;0.20;;;;;;;8.24;74.97;98191.31;5037057;28;20470;-48
2024/03/26 08:17:16;;;;;;;0.30;0.20;;;;;;;8.34;74.89;98194.34;5025217;28;20957;-49
2024/03/26 08:19:41;;;;;;;0.30;0.20;;;;;;;7.94;73.78;98192.88;5035833;28;20303;-49
2024/03/26 08:22:07;;;;;;;0.30;0.20;;;;;;;8.06;75.05;98192.25;5037311;28;20294;-48
2024/03/26 08:24:33;;;;;;;0.30;0.20;;;;;;;7.96;74.22;98181.31;5037854;28;20283;-49
2024/03/26 08:26:59;;;;;;;0.30;0.10;;;;;;;7.97;75.46;98184.81;5037704;28;20235;-48
2024/03/26 08:29:25;;;;;;;0.30;0.20;;;;;;;8.24;75.02;98190.47;5037737;28;20459;-48
2024/03/26 08:31:51;;;;;;;0.30;0.20;;;;;;;8.10;74.00;98177.09;5037340;28;20486;-48
2024/03/26 08:34:17;;;;;;;0.30;0.20;;;;;;;8.32;75.47;98183.78;5037029;28;20216;-49
2024/03/26 08:36:43;;;;;;;0.30;0.20;;;;;;;8.32;74.81;98180.28;5036839;28;20469;-49
2024/03/26 08:39:10;;;;;;;0.30;0.20;;;;;;;8.13;75.18;98188.38;5037745;28;20455;-48
2024/03/26 08:41:36;;;;;;;0.30;0.20;;;;;;;8.15;75.55;98190.94;5037800;28;20478;-49
2024/03/26 08:44:03;;;;;;;0.30;0.20;;;;;;;8.45;75.63;98194.63;5037922;28;20520;-49
2024/03/26 08:46:30;;;;;;;0.30;0.20;;;;;;;8.24;74.41;98190.47;5031898;28;20471;-48
2024/03/26 08:48:55;;;;;;;0.30;0.20;;;;;;;8.28;74.03;98187.56;5036250;28;20520;-49
2024/03/26 08:51:27;;;;;;;0.30;0.20;;;;;;;8.35;74.66;98192.53;5022681;28;20479;-48
2024/03/26 08:53:54;;;;;;;0.30;0.20;;;;;;;8.53;73.58;98178.34;5036293;28;20216;-49
2024/03/26 08:56:20;;;;;;;0.30;0.20;;;;;;;8.73;74.14;98174.56;5020652;28;20518;-49
2024/03/26 08:58:46;;;;;;;0.30;0.20;;;;;;;8.64;73.23;98178.59;5035522;28;20508;-49
2024/03/26 09:01:11;;;;;;;0.30;0.20;;;;;;;8.87;72.69;98182.63;5035803;28;20544;-49
2024/03/26 09:03:37;;;;;;;0.30;0.20;;;;;;;8.97;71.77;98186.47;5034861;28;20220;-49
2024/03/26 09:06:03;;;;;;;0.30;0.20;;;;;;;8.98;71.57;98184.69;5035409;28;20216;-49
2024/03/26 09:08:28;;;;;;;0.30;0.20;;;;;;;8.92;71.78;98185.03;5035653;28;20242;-49
2024/03/26 09:10:54;;;;;;;0.30;0.20;;;;;;;8.82;71.72;98182.88;5036074;28;20275;-49
2024/03/26 09:13:19;;;;;;;0.30;0.20;;;;;;;8.52;73.64;98184.56;5036829;28;20302;-49
2024/03/26 09:15:45;;;;;;;0.30;0.20;;;;;;;8.73;73.01;98190.47;5037570;28;20220;-49
2024/03/26 09:18:10;;;;;;;0.30;0.20;;;;;;;8.73;72.33;98186.03;5035513;28;20569;-48
2024/03/26 09:20:36;;;;;;;0.30;0.20;;;;;;;8.95;71.07;98184.84;5035999;28;20220;-49
2024/03/26 09:23:01;;;;;;;0.30;0.20;;;;;;;8.80;71.09;98186.56;5035035;28;20303;-49
2024/03/26 09:25:27;;;;;;;0.40;0.40;;;;;;;9.00;71.23;98175.69;5035971;28;20629;-49
2024/03/26 09:27:52;;;;;;;0.30;0.20;;;;;;;9.02;71.71;98176.44;5035031;28;20322;-48
2024/03/26 09:30:18;;;;;;;0.30;0.20;;;;;;;9.02;71.33;98172.94;5035499;28;20216;-49
2024/03/26 09:32:43;;;;;;;0.30;0.20;;;;;;;9.04;70.54;98173.72;5035101;28;20709;-49
2024/03/26 09:35:09;;;;;;;0.30;0.20;;;;;;;9.34;70.40;98171.13;5034781;28;20212;-49
2024/03/26 09:37:35;;;;;;;0.30;0.20;;;;;;;9.21;70.84;98168.34;5035653;28;20318;-49
2024/03/26 09:40:00;;;;;;;0.30;0.20;;;;;;;9.11;69.15;98164.50;5036432;28;20269;-49
2024/03/26 09:42:28;;;;;;;0.30;0.20;;;;;;;9.22;69.44;98153.28;5036011;28;20581;-49
2024/03/26 09:44:55;;;;;;;0.30;0.20;;;;;;;9.60;68.65;98159.88;5035204;28;20266;-49
2024/03/26 09:47:23;;;;;;;0.30;0.20;;;;;;;9.68;68.33;98148.78;5027418;28;20487;-50
2024/03/26 09:49:50;;;;;;;0.30;0.20;;;;;;;9.59;67.31;98141.38;5032470;28;20486;-49
2024/03/26 09:52:15;;;;;;;0.30;0.20;;;;;;;9.76;67.64;98151.84;5019781;28;20483;-49
2024/03/26 09:54:42;;;;;;;0.30;0.20;;;;;;;9.20;67.65;98146.28;5033001;28;20466;-48
2024/03/26 09:57:07;;;;;;;0.30;0.20;;;;;;;9.44;68.25;98141.31;5021749;28;20513;-49
2024/03/26 09:59:33;;;;;;;0.30;0.13;;;;;;;9.58;68.71;98129.91;5035617;28;20463;-49
2024/03/26 10:02:05;;;;;;;0.30;0.20;;;;;;;9.34;68.63;98124.28;5035731;28;20714;-48
2024/03/26 10:04:31;;;;;;;0.30;0.20;;;;;;;9.47;68.33;98116.44;5035223;28;20726;-49
2024/03/26 10:06:56;;;;;;;0.30;0.20;;;;;;;9.69;68.58;98113.34;5035076;28;20526;-48
2024/03/26 10:09:22;;;;;;;0.30;0.20;;;;;;;9.76;68.52;98109.41;5034599;28;20270;-49
2024/03/26 10:11:48;;;;;;;0.30;0.20;;;;;;;9.95;67.91;98107.31;5034963;28;20248;-49
2024/03/26 10:14:13;;;;;;;0.30;0.20;;;;;;;9.73;67.77;98114.88;5035710;28;20463;-49
2024/03/26 10:16:40;;;;;;;0.30;0.20;;;;;;;9.94;66.99;98105.63;5028862;28;20259;-49
2024/03/26 10:19:06;;;;;;;0.30;0.20;;;;;;;10.30;66.77;98094.56;5028038;28;20221;-49
2024/03/26 10:21:32;;;;;;;0.30;0.20;;;;;;;10.42;67.21;98098.25;5034291;28;20490;-49
2024/03/26 10:23:58;;;;;;;0.30;0.20;;;;;;;10.51;66.64;98104.78;5034441;28;20216;-49
2024/03/26 10:26:23;;;;;;;0.30;0.20;;;;;;;10.17;66.12;98106.03;5034221;28;20657;-50
2024/03/26 10:28:50;;;;;;;0.30;0.30;;;;;;;10.10;67.21;98101.06;5034708;28;20494;-48
2024/03/26 10:31:17;;;;;;;0.30;0.20;;;;;;;10.54;66.88;98104.56;5034387;28;20240;-49
2024/03/26 10:33:43;;;;;;;0.30;0.20;;;;;;;10.38;65.83;98107.34;5034103;28;20520;-49
2024/03/26 10:36:11;;;;;;;0.30;0.20;;;;;;;10.81;64.43;98105.47;5034246;28;20458;-49
2024/03/26 10:38:38;;;;;;;0.30;0.20;;;;;;;10.87;63.45;98099.75;5034043;28;20805;-49
2024/03/26 10:41:17;;;;;;;0.30;0.20;;;;;;;10.74;64.72;98095.34;5035346;28;20487;-49
2024/03/26 10:43:43;;;;;;;0.30;0.20;;;;;;;10.68;63.54;98093.91;5037649;28;20466;-50
2024/03/26 10:46:09;;;;;;;0.30;0.20;;;;;;;10.60;62.09;98080.28;5036166;28;20501;-49
2024/03/26 10:48:35;;;;;;;0.30;0.20;;;;;;;10.39;62.27;98069.22;5034128;28;20239;-49
2024/03/26 10:51:02;;;;;;;0.40;0.30;;;;;;;10.79;62.20;98071.97;5027044;28;20482;-49
2024/03/26 10:53:29;;;;;;;0.30;0.20;;;;;;;10.52;62.81;98077.25;5033963;28;20464;-49
2024/03/26 10:55:58;;;;;;;0.30;0.20;;;;;;;10.75;62.24;98084.59;5025555;28;20468;-48
2024/03/26 10:58:24;;;;;;;0.30;0.20;;;;;;;10.77;63.17;98088.00;5034311;28;20844;-49
2024/03/26 11:00:51;;;;;;;0.30;0.20;;;;;;;10.77;61.94;98073.88;5037465;28;20483;-49
2024/03/26 11:03:17;;;;;;;0.30;0.20;;;;;;;11.07;62.56;98069.19;5037652;28;20477;-50
2024/03/26 11:05:44;;;;;;;0.30;0.20;;;;;;;11.18;62.29;98079.97;5037855;28;20459;-50
2024/03/26 11:08:15;;;;;;;0.30;0.20;;;;;;;10.84;62.54;98059.25;5037387;28;20498;-49
2024/03/26 11:11:06;;;;;;;0.30;0.20;;;;;;;11.00;62.28;98062.59;5037680;28;20465;-49
2024/03/26 11:13:35;;;;;;;0.30;0.20;;;;;;;11.06;61.38;98051.53;5013704;28;20563;-49
2024/03/26 11:16:03;;;;;;;0.30;0.20;;;;;;;11.05;61.56;98052.50;5036983;28;20465;-48
2024/03/26 11:18:34;;;;;;;0.30;0.20;;;;;;;11.12;60.68;98037.84;5025970;28;20466;-49
2024/03/26 11:21:04;;;;;;;0.30;0.20;;;;;;;11.44;59.84;98037.47;5037226;28;21000;-49
2024/03/26 11:23:37;;;;;;;0.30;0.20;;;;;;;11.44;60.10;98043.66;5037076;28;20966;-50
2024/03/26 11:26:04;;;;;;;0.30;0.20;;;;;;;11.33;59.00;98042.66;5037246;28;20466;-49
2024/03/26 11:28:33;;;;;;;0.30;0.20;;;;;;;11.69;58.75;98044.63;5037089;28;20491;-49
2024/03/26 11:31:01;;;;;;;0.30;0.20;;;;;;;11.50;58.85;98039.72;5037144;28;20486;-50
2024/03/26 11:33:31;;;;;;;0.30;0.20;;;;;;;11.75;57.47;98033.53;5037478;28;20477;-50
2024/03/26 11:36:01;;;;;;;0.30;0.20;;;;;;;11.54;57.59;98028.78;5036798;28;20474;-50